Terminal Aerodrome Forecast
Issued by NWS

Home | Current Version | Previous Version | Text Only | Print | Product List | Glossary On
Versions: 1 2 3 4 5 6 7 8 9 10 11 12 13 14 15 16 17 18 19 20 21 22 23 24 25
752
FTPA31 PHFO 161300 AAA
TAFHTO
TAF AMD
PHTO 161300Z 1613/1712 24005KT P6SM VCSH SCT025 BKN045
      TEMPO 1613/1614 -SHRA BKN025
     FM162000 05008KT P6SM SCT025 SCT045
     FM170500 24005KT P6SM VCSH SCT025 BKN045=

USA.gov is the U.S. government's official web portal to all federal, state and local government web resources and services.